createdAt,value
2023-02-10T00:00:01.599Z,91.20
2023-02-10T00:05:03.512Z,91.10
2023-02-10T00:10:05.776Z,91.40
2023-02-10T00:15:08.043Z,91.40
2023-02-10T00:20:10.286Z,91.50
2023-02-10T00:25:12.152Z,91.80
2023-02-10T00:30:14.292Z,91.70
2023-02-10T00:35:16.138Z,91.90
2023-02-10T00:40:18.552Z,92.20
2023-02-10T00:45:20.592Z,92.00
2023-02-10T00:50:25.242Z,91.90
2023-02-10T00:55:27.127Z,92.10
2023-02-10T01:00:28.989Z,92.10
2023-02-10T01:05:30.921Z,92.10
2023-02-10T01:10:35.865Z,92.40
2023-02-10T01:15:45.531Z,92.60
2023-02-10T01:20:47.473Z,92.00
2023-02-10T01:25:49.561Z,92.60
2023-02-10T01:30:51.599Z,92.80
2023-02-10T01:35:53.431Z,92.80
2023-02-10T01:40:55.323Z,92.60
2023-02-10T01:45:57.173Z,93.00
2023-02-10T01:51:03.283Z,93.10
2023-02-10T01:56:05.925Z,92.80
2023-02-10T02:01:11.077Z,93.30
2023-02-10T02:06:12.969Z,93.20
2023-02-10T02:11:20.939Z,93.40
2023-02-10T02:16:36.236Z,93.30
2023-02-10T02:21:59.401Z,93.40
2023-02-10T02:27:13.511Z,93.20
2023-02-10T02:32:19.754Z,93.50
2023-02-10T02:37:33.141Z,93.80
2023-02-10T02:42:35.127Z,93.50
2023-02-10T02:48:24.627Z,94.00
2023-02-10T02:53:45.029Z,93.50
2023-02-10T02:59:14.765Z,93.80
2023-02-10T03:04:18.339Z,93.90
2023-02-10T03:09:20.263Z,93.80
2023-02-10T03:14:22.753Z,94.00
2023-02-10T03:19:24.906Z,93.60
2023-02-10T03:24:26.760Z,93.70
2023-02-10T03:29:28.595Z,93.90
2023-02-10T03:34:30.436Z,94.10
2023-02-10T03:39:32.250Z,94.20
2023-02-10T03:44:34.101Z,94.10
2023-02-10T03:49:35.938Z,94.00
2023-02-10T03:54:37.760Z,94.10
2023-02-10T03:59:39.894Z,94.40
2023-02-10T04:04:41.716Z,94.10
2023-02-10T04:09:43.593Z,94.20
2023-02-10T04:14:45.472Z,94.10
2023-02-10T04:19:47.305Z,94.30
2023-02-10T04:24:49.133Z,94.30
2023-02-10T04:29:51.009Z,94.10
2023-02-10T04:34:53.023Z,94.60
2023-02-10T04:39:54.837Z,94.50
2023-02-10T04:45:00.249Z,94.70
2023-02-10T04:50:02.187Z,95.10
2023-02-10T04:55:04.084Z,94.40
2023-02-10T05:00:07.738Z,94.80
2023-02-10T05:05:12.436Z,94.90
2023-02-10T05:10:14.404Z,95.30
2023-02-10T05:15:16.314Z,95.00
2023-02-10T05:20:18.207Z,94.90
2023-02-10T05:25:20.263Z,94.70
2023-02-10T05:30:22.200Z,95.10
2023-02-10T05:35:24.021Z,95.40
2023-02-10T05:40:25.941Z,95.30
2023-02-10T05:45:27.992Z,94.90
2023-02-10T05:50:30.547Z,95.20
2023-02-10T05:55:32.642Z,95.50
2023-02-10T06:00:34.542Z,95.60
2023-02-10T06:05:36.571Z,95.60
2023-02-10T06:10:38.487Z,95.40
2023-02-10T06:15:40.316Z,95.10
2023-02-10T06:20:42.175Z,95.50
2023-02-10T06:25:44.564Z,95.40
2023-02-10T06:30:46.442Z,95.40
2023-02-10T06:35:49.096Z,95.20
2023-02-10T06:40:51.260Z,95.60
2023-02-10T06:45:53.185Z,95.40
2023-02-10T06:50:55.041Z,95.10
2023-02-10T06:55:57.937Z,95.90
2023-02-10T07:01:08.529Z,96.00
2023-02-10T07:06:10.419Z,96.00
2023-02-10T07:11:12.322Z,95.70
2023-02-10T07:16:16.027Z,95.20
2023-02-10T07:21:17.890Z,94.60
2023-02-10T07:26:19.715Z,93.90
2023-02-10T07:31:21.712Z,93.50
2023-02-10T07:36:24.377Z,93.30
2023-02-10T07:41:26.252Z,93.00
2023-02-10T07:46:28.087Z,92.60
2023-02-10T07:51:29.974Z,92.60
2023-02-10T07:56:31.862Z,92.00
2023-02-10T08:01:34.068Z,91.80
2023-02-10T08:06:35.923Z,91.20
2023-02-10T08:11:37.808Z,91.00
2023-02-10T08:16:39.647Z,89.90
2023-02-10T08:21:42.919Z,89.20
2023-02-10T08:26:44.906Z,89.10
2023-02-10T08:31:50.365Z,88.10
2023-02-10T08:36:52.278Z,87.50
2023-02-10T08:41:54.174Z,85.90
2023-02-10T08:46:56.781Z,84.20
2023-02-10T08:51:58.724Z,81.90
2023-02-10T08:57:00.549Z,81.10
2023-02-10T09:02:03.089Z,79.30
2023-02-10T09:07:05.140Z,78.00
2023-02-10T09:12:08.241Z,77.70
2023-02-10T09:17:10.087Z,77.50
2023-02-10T09:22:11.915Z,77.40
2023-02-10T09:27:14.086Z,75.50
2023-02-10T09:32:15.958Z,74.90
2023-02-10T09:37:17.987Z,74.10
2023-02-10T09:42:46.916Z,73.40
2023-02-10T09:47:54.486Z,73.90
2023-02-10T09:53:07.485Z,71.90
2023-02-10T09:58:19.429Z,72.60
2023-02-10T10:03:28.136Z,70.60
2023-02-10T10:08:53.120Z,71.00
2023-02-10T10:13:56.879Z,70.40
2023-02-10T10:19:19.108Z,68.90
2023-02-10T10:24:23.953Z,67.40
2023-02-10T10:29:43.525Z,67.60
2023-02-10T10:34:54.187Z,67.40
2023-02-10T10:40:02.356Z,66.60
2023-02-10T10:45:13.305Z,66.40
2023-02-10T10:50:17.847Z,66.50
2023-02-10T10:55:41.210Z,65.50
2023-02-10T11:00:53.619Z,63.70
2023-02-10T11:06:01.595Z,64.00
2023-02-10T11:11:05.592Z,64.70
2023-02-10T11:16:11.635Z,63.70
2023-02-10T11:21:13.459Z,65.40
2023-02-10T11:26:20.989Z,65.20
2023-02-10T11:31:23.106Z,63.40
2023-02-10T11:36:40.035Z,62.90
2023-02-10T11:41:41.821Z,63.50
2023-02-10T11:46:46.679Z,63.90
2023-02-10T11:51:52.955Z,64.00
2023-02-10T11:57:25.522Z,62.80
2023-02-10T12:03:06.976Z,62.30
2023-02-10T12:08:38.569Z,61.90
2023-02-10T12:13:57.216Z,62.50
2023-02-10T12:19:07.201Z,61.90
2023-02-10T12:24:25.360Z,61.00
2023-02-10T12:29:49.562Z,61.70
2023-02-10T12:35:07.089Z,61.30
2023-02-10T12:40:15.929Z,61.00
2023-02-10T12:45:34.181Z,61.90
2023-02-10T12:51:10.020Z,61.60
2023-02-10T12:56:26.649Z,61.10
2023-02-10T13:01:36.069Z,60.90
2023-02-10T13:07:04.403Z,61.40
2023-02-10T13:12:27.757Z,61.30
2023-02-10T13:17:44.419Z,61.10
2023-02-10T13:23:03.400Z,61.10
2023-02-10T13:28:22.305Z,60.60
2023-02-10T13:34:25.004Z,61.00
2023-02-10T13:39:35.381Z,61.60
2023-02-10T13:44:42.006Z,61.50
2023-02-10T13:49:52.324Z,62.70
2023-02-10T13:55:20.345Z,63.70
2023-02-10T14:00:26.337Z,63.80
2023-02-10T14:05:34.373Z,63.90
2023-02-10T14:10:36.221Z,64.50
2023-02-10T14:15:45.214Z,65.20
2023-02-10T14:20:47.992Z,64.70
2023-02-10T14:25:56.978Z,65.80
2023-02-10T14:31:02.292Z,65.80
2023-02-10T14:36:17.930Z,65.90
2023-02-10T14:41:21.391Z,67.10
2023-02-10T14:46:29.598Z,67.40
2023-02-10T14:51:32.042Z,67.60
2023-02-10T14:56:33.857Z,68.60
2023-02-10T15:01:36.847Z,69.10
2023-02-10T15:06:39.246Z,69.30
2023-02-10T15:12:12.191Z,69.40
2023-02-10T15:17:17.252Z,69.80
2023-02-10T15:22:52.794Z,69.80
2023-02-10T15:27:57.993Z,70.30
2023-02-10T15:33:00.436Z,70.60
2023-02-10T15:38:04.463Z,70.70
2023-02-10T15:43:23.441Z,71.00
2023-02-10T15:48:38.006Z,71.80
2023-02-10T15:53:40.449Z,71.80
2023-02-10T15:58:42.245Z,73.00
2023-02-10T16:03:44.067Z,73.40
2023-02-10T16:08:45.999Z,74.40
2023-02-10T16:13:47.793Z,75.20
2023-02-10T16:18:49.671Z,75.80
2023-02-10T16:23:51.448Z,76.50
2023-02-10T16:28:53.603Z,77.30
2023-02-10T16:33:55.397Z,77.80
2023-02-10T16:39:02.486Z,78.60
2023-02-10T16:44:04.547Z,79.50
2023-02-10T16:49:06.528Z,81.20
2023-02-10T16:54:11.770Z,80.60
2023-02-10T16:59:16.513Z,81.20
2023-02-10T17:04:18.373Z,80.90
2023-02-10T17:09:24.203Z,81.60
2023-02-10T17:14:26.022Z,82.50
2023-02-10T17:19:28.905Z,82.70
2023-02-10T17:24:30.785Z,82.60
2023-02-10T17:29:32.578Z,83.30
2023-02-10T17:34:36.516Z,83.50
2023-02-10T17:39:41.841Z,83.30
2023-02-10T17:44:43.642Z,85.30
2023-02-10T17:49:45.444Z,85.70
2023-02-10T17:54:50.053Z,85.30
2023-02-10T17:59:51.827Z,85.70
2023-02-10T18:04:54.003Z,85.20
2023-02-10T18:09:55.789Z,85.30
2023-02-10T18:14:57.626Z,86.30
2023-02-10T18:19:59.542Z,86.70
2023-02-10T18:25:01.380Z,86.90
2023-02-10T18:30:03.396Z,86.60
2023-02-10T18:35:05.862Z,87.30
2023-02-10T18:40:09.747Z,87.00
2023-02-10T18:45:11.715Z,85.70
2023-02-10T18:50:13.509Z,86.70
2023-02-10T18:55:15.383Z,86.80
2023-02-10T19:00:17.453Z,85.80
2023-02-10T19:05:19.239Z,85.20
2023-02-10T19:10:24.098Z,84.20
2023-02-10T19:15:26.218Z,83.70
2023-02-10T19:20:28.123Z,83.40
2023-02-10T19:25:29.926Z,83.20
2023-02-10T19:30:31.764Z,83.20
2023-02-10T19:35:49.631Z,83.30
2023-02-10T19:41:02.044Z,83.20
2023-02-10T19:46:06.441Z,83.20
2023-02-10T19:51:16.123Z,83.10
2023-02-10T19:56:18.106Z,83.00
2023-02-10T20:01:20.986Z,83.20
2023-02-10T20:06:37.696Z,83.50
2023-02-10T20:11:40.085Z,83.80
2023-02-10T20:16:44.845Z,84.10
2023-02-10T20:21:47.785Z,84.20
2023-02-10T20:26:49.666Z,84.60
2023-02-10T20:31:51.674Z,84.20
2023-02-10T20:36:53.522Z,84.40
2023-02-10T20:41:55.406Z,85.10
2023-02-10T20:46:57.400Z,85.20
2023-02-10T20:51:59.350Z,85.30
2023-02-10T20:57:01.195Z,85.40
2023-02-10T21:02:02.986Z,85.60
2023-02-10T21:07:04.800Z,85.40
2023-02-10T21:12:06.779Z,85.60
2023-02-10T21:17:08.756Z,85.80
2023-02-10T21:22:10.739Z,85.80
2023-02-10T21:27:12.576Z,86.00
2023-02-10T21:32:14.349Z,86.00
2023-02-10T21:37:16.556Z,86.30
2023-02-10T21:42:19.688Z,86.60
2023-02-10T21:47:22.713Z,86.90
2023-02-10T21:52:24.717Z,86.80
2023-02-10T21:57:26.668Z,86.80
2023-02-10T22:02:28.470Z,87.00
2023-02-10T22:07:30.321Z,87.10
2023-02-10T22:12:32.776Z,87.20
2023-02-10T22:17:34.586Z,87.20
2023-02-10T22:22:36.423Z,87.30
2023-02-10T22:27:38.226Z,87.20
2023-02-10T22:32:40.044Z,87.30
2023-02-10T22:37:41.845Z,87.30
2023-02-10T22:42:43.645Z,87.40
2023-02-10T22:47:46.137Z,87.40
2023-02-10T22:52:48.021Z,87.70
2023-02-10T22:57:50.592Z,87.60
2023-02-10T23:02:52.641Z,87.50
2023-02-10T23:07:54.423Z,87.50
2023-02-10T23:12:56.301Z,87.50
2023-02-10T23:17:58.103Z,87.70
2023-02-10T23:23:00.548Z,88.00
2023-02-10T23:28:02.425Z,87.60
2023-02-10T23:33:08.866Z,87.60
2023-02-10T23:38:11.201Z,87.40
2023-02-10T23:43:13.076Z,87.40
2023-02-10T23:48:15.403Z,87.20
2023-02-10T23:53:17.398Z,87.10
2023-02-10T23:58:19.245Z,87.60
